Mendig

EDRE · 莱茵兰-普法尔茨, 德国

使用的METAR站距离机场28 km。
罗盘
风向 的 风向 050° Mendig 7/25
风: 9 kt, 3 beaufort

8 kt

4 kt
改变
0 ft 6.000 12.000 18.000 24.000 30.000
Cloud Cloud Cloud Cloud Cloud Cloud
BKN 3.800
Cloud Cloud Cloud Cloud
SCT 24.000
METAR ETSB 221120Z 05009KT 9999 BKN038 SCT240 06/M05 Q1021 BLU BLU TEMPO GRN

METAR Mendig - EDRE

Mendig是,德国中的小机场。 该机场位于纬度50,36600和经度7,31538。 该机场有一条跑道: 7/25. 本场的ICAO机场代码为EDRE。 机场在Langen FIR中。

该航空气象观测是针对Büchel Air Base在2024年4月22日 13:20, 当地时间进行的。

机场观察

风向为050°,速度为9 kt。

可见度为10 km 或者更多。

有碎云在3.800 ft的高度 和 疏云,零星散落的云朵在24.000 ft的高度。 破损或更高的上限为3.800 ft。

温度为6 °C,阵风为1 °C。 露点为-5 °C,相对湿度为46%。 海平面上的气压为1021 hPa (QNH)。

发展趋势

  • 暂时的

    可变方向的风很小或没有。

白天

今天,太阳从06:21升起,在20:36降落。 这适用于Mendig,世界夏令时可能有所不同。 当地时间与世界标准时间之间的时差为+2 小时。 夏令时目前正在进行中。

公司介绍

我们没有关于这个机场的公司信息。

体会

到Vliegles.nl去找飞行课程,跳伞和其他飞行体验。 浏览页面,了解Mendig附近所有可用的活动。 你也可以使用搜索功能来寻找你所在地附近的特定飞行课程、跳伞或其他飞行体验。

跑道

Id 标题 侧风 逆风 侧风 %
7/25 075°-255° 4 kt 8 kt 42 %

逆风成分最大的方向会被突出显示,并用于横风计算。 这并不一定意味着这个方向在使用。

乌云

3.800 ft BKN 碎云
24.000 ft SCT 疏云,零星散落的云朵

温度 & 天气

温度 6 °C
露点 -5 °C
相对湿度 46%
风寒 1 °C
Kp-index 0 (0-9)

白天

日出
06:23
中午
13:30
日落
20:37 (6:27)

小工具

你想在你的网站上有一个关于Mendig的当前航空天气(METAR)的小部件吗?

显示HTML代码
报告变更